Etusivu
METAR-TAF:

METAR-TAF

Lentoasemat :

Karachi, Pakistan

Leveyspiiri: 24-54N, Pituuspiiri: 067-08E, korkeus merenpinnasta: 21 m

Tämänhetkinen sää

Tämä raportti tehtiin 29 minuuttia sitten, kello 21.23 UTC
Tuuli 4 kn koillisesta
Lämpötila 11°C
Kosteus 71%
Ilmanpaine 1015 hPa
Näkyvyys: 5000 m
Muutamia pilviä 2000 ft:n korkeudessa
usvaa

METAR: OPKC 222123Z 05004KT 5000 HZ FEW020 11/06 Q1015 NOSIG

Aika: 02:52 (21:52 UTC)

Sääennuste

Tämä raportti tehtiin 5 tuntia ja 52 minuuttia sitten, kello 16.00 UTC
Ennuste voimassa 22. päivästä klo 18 UTC - 23. päivään klo 24 UTC
Tuuli 5 kn luoteesta
Näkyvyys: 4000 m
usvaa
Ajoittain
23. päivästä klo 00 UTC - 23. päivään klo 04 UTC
Tuuli 5 kn koillisesta
Näkyvyys: 2500 m
savua
From UTC
Tuuli 5 kn koillisesta puuskistuen 15 kn:hen
Näkyvyys: 6000 m

TAF: OPKC 221600Z 2218/2324 31005KT 4000 HZ NSC TEMPO 2300/2304 05005KT 2500 FU NSC FM 230600Z 05005G15KT 6000 NSC

Säähavainnot ja -ennusteet yli 4000 lentoasemalta (METAR- ja TAF-raportit).

Käytössä olevat sääasemat on merkitty karttaan keltaisilla ja punaisilla pisteillä.

Aseta hiiri pisteen päälle nähdäksesi sääaseman nimen.

Klikkaa sitten nähdäksesi säähavainnot ja -ennusteet.

Kartan vaihtaminen: klikkaa mustalla rastilla varustettuja vihreitä pisteitä, niin voit zoomata sisään; viivalla varustettua vihreää pistettä, niin voit zoomata ulos tai vihreitä nuolia, niin pääset viereisille kartoille.


METAR-TAF: